Kirby Muxloe, United Kingdom
Current Conditions -  °F | °C
As of 2:20 PM on Tuesday 27 Jan 2015 (Local Time) from EGNX Reporting Station
Broken Clouds Broken Clouds  
Wind Chill: 40°   Ceiling: 2100
Heat Index: 46°   Visibility: 6mi
Dew Point: 41°   Wind: 14mph
Humidity: 81%   Direction: 260°W
Pressure: 30.24"   Gusts: NA
Location:  52.63°N, 1.23°W
Report Text: EGNX 271420Z 26012KT 9999 BKN021 08/05 Q1024
Loading
Personal Weather Stations






























Interactive Weather Map New forecast layout! Learn more

10-Day Weather Forecast

Advertisements
Track Severe Weather on mobile